sensor_id;sensor_type;location;lat;lon;timestamp;P1;durP1;ratioP1;P2;durP2;ratioP2
17347;SDS011;8791;50.876;4.342;2023-03-13T00:00:48;18.10;;;5.40;;
17347;SDS011;8791;50.876;4.342;2023-03-13T00:03:15;17.63;;;4.73;;
17347;SDS011;8791;50.876;4.342;2023-03-13T00:05:43;14.27;;;5.30;;
17347;SDS011;8791;50.876;4.342;2023-03-13T00:08:10;19.83;;;5.37;;
17347;SDS011;8791;50.876;4.342;2023-03-13T00:10:37;18.40;;;4.50;;
17347;SDS011;8791;50.876;4.342;2023-03-13T00:13:04;18.20;;;4.70;;
17347;SDS011;8791;50.876;4.342;2023-03-13T00:15:31;21.27;;;4.90;;
17347;SDS011;8791;50.876;4.342;2023-03-13T00:17:58;18.67;;;4.70;;
17347;SDS011;8791;50.876;4.342;2023-03-13T00:20:25;21.63;;;4.80;;
17347;SDS011;8791;50.876;4.342;2023-03-13T00:22:53;17.63;;;4.80;;
17347;SDS011;8791;50.876;4.342;2023-03-13T00:25:20;16.33;;;5.27;;
17347;SDS011;8791;50.876;4.342;2023-03-13T00:27:47;20.57;;;5.13;;
17347;SDS011;8791;50.876;4.342;2023-03-13T00:30:13;18.23;;;4.57;;
17347;SDS011;8791;50.876;4.342;2023-03-13T00:32:40;14.73;;;5.37;;
17347;SDS011;8791;50.876;4.342;2023-03-13T00:35:08;16.70;;;5.03;;
17347;SDS011;8791;50.876;4.342;2023-03-13T00:37:34;13.57;;;5.37;;
17347;SDS011;8791;50.876;4.342;2023-03-13T00:40:03;16.17;;;5.37;;
17347;SDS011;8791;50.876;4.342;2023-03-13T00:42:32;17.70;;;5.67;;
17347;SDS011;8791;50.876;4.342;2023-03-13T00:44:58;13.07;;;5.27;;
17347;SDS011;8791;50.876;4.342;2023-03-13T00:47:25;14.47;;;5.57;;
17347;SDS011;8791;50.876;4.342;2023-03-13T00:49:52;14.17;;;5.50;;
17347;SDS011;8791;50.876;4.342;2023-03-13T00:52:19;12.80;;;5.73;;
17347;SDS011;8791;50.876;4.342;2023-03-13T00:54:45;14.03;;;5.57;;
17347;SDS011;8791;50.876;4.342;2023-03-13T00:57:14;13.80;;;5.23;;
17347;SDS011;8791;50.876;4.342;2023-03-13T00:59:40;9.30;;;5.10;;
17347;SDS011;8791;50.876;4.342;2023-03-13T01:02:07;13.53;;;5.63;;
17347;SDS011;8791;50.876;4.342;2023-03-13T01:04:34;8.70;;;5.60;;
17347;SDS011;8791;50.876;4.342;2023-03-13T01:07:01;9.63;;;5.40;;
17347;SDS011;8791;50.876;4.342;2023-03-13T01:09:27;9.07;;;5.13;;
17347;SDS011;8791;50.876;4.342;2023-03-13T01:11:54;14.50;;;5.97;;
17347;SDS011;8791;50.876;4.342;2023-03-13T01:14:22;12.87;;;5.67;;
17347;SDS011;8791;50.876;4.342;2023-03-13T01:16:49;7.87;;;5.63;;
17347;SDS011;8791;50.876;4.342;2023-03-13T01:19:16;9.87;;;5.40;;
17347;SDS011;8791;50.876;4.342;2023-03-13T01:21:43;10.37;;;5.77;;
17347;SDS011;8791;50.876;4.342;2023-03-13T01:24:11;9.67;;;5.50;;
17347;SDS011;8791;50.876;4.342;2023-03-13T01:26:38;10.00;;;5.97;;
17347;SDS011;8791;50.876;4.342;2023-03-13T01:29:05;10.20;;;5.50;;
17347;SDS011;8791;50.876;4.342;2023-03-13T01:31:33;10.03;;;6.03;;
17347;SDS011;8791;50.876;4.342;2023-03-13T01:34:01;7.60;;;5.73;;
17347;SDS011;8791;50.876;4.342;2023-03-13T01:36:29;11.60;;;6.30;;
17347;SDS011;8791;50.876;4.342;2023-03-13T01:38:56;10.60;;;5.70;;
17347;SDS011;8791;50.876;4.342;2023-03-13T01:41:25;8.57;;;5.37;;
17347;SDS011;8791;50.876;4.342;2023-03-13T01:43:52;8.17;;;5.80;;
17347;SDS011;8791;50.876;4.342;2023-03-13T01:46:20;7.80;;;5.37;;
17347;SDS011;8791;50.876;4.342;2023-03-13T01:48:51;10.30;;;5.57;;
17347;SDS011;8791;50.876;4.342;2023-03-13T01:51:23;13.87;;;5.30;;
17347;SDS011;8791;50.876;4.342;2023-03-13T01:53:53;13.20;;;5.63;;
17347;SDS011;8791;50.876;4.342;2023-03-13T01:56:25;8.30;;;5.60;;
17347;SDS011;8791;50.876;4.342;2023-03-13T01:58:57;9.10;;;5.37;;
17347;SDS011;8791;50.876;4.342;2023-03-13T02:01:24;8.85;;;5.70;;
17347;SDS011;8791;50.876;4.342;2023-03-13T02:03:54;12.30;;;4.67;;
17347;SDS011;8791;50.876;4.342;2023-03-13T02:06:22;8.00;;;4.77;;
17347;SDS011;8791;50.876;4.342;2023-03-13T02:08:53;8.90;;;4.90;;
17347;SDS011;8791;50.876;4.342;2023-03-13T02:11:24;5.33;;;4.83;;
17347;SDS011;8791;50.876;4.342;2023-03-13T02:13:54;6.33;;;4.50;;
17347;SDS011;8791;50.876;4.342;2023-03-13T02:16:22;5.07;;;3.77;;
17347;SDS011;8791;50.876;4.342;2023-03-13T02:18:49;8.87;;;5.03;;
17347;SDS011;8791;50.876;4.342;2023-03-13T02:21:19;5.50;;;4.20;;
17347;SDS011;8791;50.876;4.342;2023-03-13T02:23:58;5.20;;;4.70;;
17347;SDS011;8791;50.876;4.342;2023-03-13T02:26:34;11.03;;;4.27;;
17347;SDS011;8791;50.876;4.342;2023-03-13T02:29:01;9.97;;;4.20;;
17347;SDS011;8791;50.876;4.342;2023-03-13T02:31:28;5.13;;;4.13;;
17347;SDS011;8791;50.876;4.342;2023-03-13T02:33:55;6.27;;;4.50;;
17347;SDS011;8791;50.876;4.342;2023-03-13T02:36:25;5.37;;;4.23;;
17347;SDS011;8791;50.876;4.342;2023-03-13T02:38:55;8.63;;;4.30;;
17347;SDS011;8791;50.876;4.342;2023-03-13T02:41:26;6.90;;;4.47;;
17347;SDS011;8791;50.876;4.342;2023-03-13T02:43:55;5.30;;;4.00;;
17347;SDS011;8791;50.876;4.342;2023-03-13T02:46:22;6.03;;;4.97;;
17347;SDS011;8791;50.876;4.342;2023-03-13T02:48:49;8.27;;;5.00;;
17347;SDS011;8791;50.876;4.342;2023-03-13T02:51:19;11.20;;;4.60;;
17347;SDS011;8791;50.876;4.342;2023-03-13T02:53:54;6.67;;;4.10;;
17347;SDS011;8791;50.876;4.342;2023-03-13T02:56:26;4.63;;;3.90;;
17347;SDS011;8791;50.876;4.342;2023-03-13T02:58:57;6.33;;;4.57;;
17347;SDS011;8791;50.876;4.342;2023-03-13T03:01:24;4.60;;;4.00;;
17347;SDS011;8791;50.876;4.342;2023-03-13T03:03:51;4.90;;;4.07;;
17347;SDS011;8791;50.876;4.342;2023-03-13T03:06:18;8.03;;;4.23;;
17347;SDS011;8791;50.876;4.342;2023-03-13T03:08:45;4.37;;;3.63;;
17347;SDS011;8791;50.876;4.342;2023-03-13T03:11:11;5.00;;;3.57;;
17347;SDS011;8791;50.876;4.342;2023-03-13T03:13:38;4.20;;;3.80;;
17347;SDS011;8791;50.876;4.342;2023-03-13T03:16:07;5.70;;;3.90;;
17347;SDS011;8791;50.876;4.342;2023-03-13T03:18:35;4.33;;;3.53;;
17347;SDS011;8791;50.876;4.342;2023-03-13T03:21:03;5.87;;;4.00;;
17347;SDS011;8791;50.876;4.342;2023-03-13T03:23:31;5.10;;;3.47;;
17347;SDS011;8791;50.876;4.342;2023-03-13T03:25:58;5.97;;;3.43;;
17347;SDS011;8791;50.876;4.342;2023-03-13T03:28:25;4.37;;;3.67;;
17347;SDS011;8791;50.876;4.342;2023-03-13T03:30:52;6.13;;;3.03;;
17347;SDS011;8791;50.876;4.342;2023-03-13T03:33:21;8.80;;;3.30;;
17347;SDS011;8791;50.876;4.342;2023-03-13T03:35:48;5.27;;;3.37;;
17347;SDS011;8791;50.876;4.342;2023-03-13T03:38:15;3.73;;;2.80;;
17347;SDS011;8791;50.876;4.342;2023-03-13T03:40:42;5.87;;;3.50;;
17347;SDS011;8791;50.876;4.342;2023-03-13T03:43:09;5.63;;;2.70;;
17347;SDS011;8791;50.876;4.342;2023-03-13T03:45:36;5.33;;;3.47;;
17347;SDS011;8791;50.876;4.342;2023-03-13T03:48:03;6.13;;;3.50;;
17347;SDS011;8791;50.876;4.342;2023-03-13T03:50:31;3.07;;;2.73;;
17347;SDS011;8791;50.876;4.342;2023-03-13T03:52:58;3.80;;;3.43;;
17347;SDS011;8791;50.876;4.342;2023-03-13T03:55:25;6.57;;;3.73;;
17347;SDS011;8791;50.876;4.342;2023-03-13T03:57:52;3.80;;;3.40;;
17347;SDS011;8791;50.876;4.342;2023-03-13T04:00:18;5.33;;;3.13;;
17347;SDS011;8791;50.876;4.342;2023-03-13T04:02:46;6.17;;;3.33;;
17347;SDS011;8791;50.876;4.342;2023-03-13T04:05:13;9.53;;;3.23;;
17347;SDS011;8791;50.876;4.342;2023-03-13T04:07:41;3.77;;;3.00;;
17347;SDS011;8791;50.876;4.342;2023-03-13T04:10:09;5.17;;;2.83;;
17347;SDS011;8791;50.876;4.342;2023-03-13T04:12:36;9.20;;;3.50;;
17347;SDS011;8791;50.876;4.342;2023-03-13T04:15:03;3.90;;;3.27;;
17347;SDS011;8791;50.876;4.342;2023-03-13T04:17:30;3.47;;;3.10;;
17347;SDS011;8791;50.876;4.342;2023-03-13T04:19:57;4.83;;;3.10;;
17347;SDS011;8791;50.876;4.342;2023-03-13T04:22:24;5.40;;;3.40;;
17347;SDS011;8791;50.876;4.342;2023-03-13T04:24:53;6.57;;;3.27;;
17347;SDS011;8791;50.876;4.342;2023-03-13T04:27:19;7.47;;;3.27;;
17347;SDS011;8791;50.876;4.342;2023-03-13T04:29:46;5.60;;;2.80;;
17347;SDS011;8791;50.876;4.342;2023-03-13T04:32:13;9.43;;;3.87;;
17347;SDS011;8791;50.876;4.342;2023-03-13T04:34:40;4.30;;;2.70;;
17347;SDS011;8791;50.876;4.342;2023-03-13T04:37:06;4.40;;;3.07;;
17347;SDS011;8791;50.876;4.342;2023-03-13T04:39:33;5.80;;;3.10;;
17347;SDS011;8791;50.876;4.342;2023-03-13T04:42:01;6.43;;;3.30;;
17347;SDS011;8791;50.876;4.342;2023-03-13T04:44:28;6.87;;;2.90;;
17347;SDS011;8791;50.876;4.342;2023-03-13T04:46:55;6.60;;;2.87;;
17347;SDS011;8791;50.876;4.342;2023-03-13T04:49:22;11.73;;;2.93;;
17347;SDS011;8791;50.876;4.342;2023-03-13T04:51:49;7.50;;;3.23;;
17347;SDS011;8791;50.876;4.342;2023-03-13T04:54:16;8.73;;;2.73;;
17347;SDS011;8791;50.876;4.342;2023-03-13T04:56:42;5.50;;;3.20;;
17347;SDS011;8791;50.876;4.342;2023-03-13T04:59:11;3.80;;;2.87;;
17347;SDS011;8791;50.876;4.342;2023-03-13T05:01:38;5.23;;;2.67;;
17347;SDS011;8791;50.876;4.342;2023-03-13T05:04:06;5.67;;;2.93;;
17347;SDS011;8791;50.876;4.342;2023-03-13T05:06:33;7.73;;;2.87;;
17347;SDS011;8791;50.876;4.342;2023-03-13T05:09:00;8.20;;;3.23;;
17347;SDS011;8791;50.876;4.342;2023-03-13T05:11:27;6.77;;;2.50;;
17347;SDS011;8791;50.876;4.342;2023-03-13T05:13:55;6.27;;;2.97;;
17347;SDS011;8791;50.876;4.342;2023-03-13T05:16:23;4.73;;;2.80;;
17347;SDS011;8791;50.876;4.342;2023-03-13T05:18:49;12.03;;;3.33;;
17347;SDS011;8791;50.876;4.342;2023-03-13T05:21:16;9.50;;;3.43;;
17347;SDS011;8791;50.876;4.342;2023-03-13T05:23:43;9.07;;;2.57;;
17347;SDS011;8791;50.876;4.342;2023-03-13T05:26:10;12.00;;;3.40;;
17347;SDS011;8791;50.876;4.342;2023-03-13T05:28:37;11.77;;;3.20;;
17347;SDS011;8791;50.876;4.342;2023-03-13T05:31:04;5.73;;;2.97;;
17347;SDS011;8791;50.876;4.342;2023-03-13T05:33:32;7.67;;;2.60;;
17347;SDS011;8791;50.876;4.342;2023-03-13T05:35:58;8.73;;;3.10;;
17347;SDS011;8791;50.876;4.342;2023-03-13T05:38:25;7.33;;;3.00;;
17347;SDS011;8791;50.876;4.342;2023-03-13T05:40:52;13.33;;;3.10;;
17347;SDS011;8791;50.876;4.342;2023-03-13T05:43:19;9.60;;;3.07;;
17347;SDS011;8791;50.876;4.342;2023-03-13T05:45:46;10.13;;;2.77;;
17347;SDS011;8791;50.876;4.342;2023-03-13T05:48:12;10.63;;;2.50;;
17347;SDS011;8791;50.876;4.342;2023-03-13T05:50:40;9.87;;;3.07;;
17347;SDS011;8791;50.876;4.342;2023-03-13T05:53:07;6.13;;;2.57;;
17347;SDS011;8791;50.876;4.342;2023-03-13T05:55:34;7.37;;;3.00;;
17347;SDS011;8791;50.876;4.342;2023-03-13T05:58:01;6.63;;;2.90;;
17347;SDS011;8791;50.876;4.342;2023-03-13T06:00:28;10.17;;;3.10;;
17347;SDS011;8791;50.876;4.342;2023-03-13T06:02:54;7.20;;;2.83;;
17347;SDS011;8791;50.876;4.342;2023-03-13T06:05:21;10.33;;;3.60;;
17347;SDS011;8791;50.876;4.342;2023-03-13T06:07:49;7.20;;;2.60;;
17347;SDS011;8791;50.876;4.342;2023-03-13T06:10:16;12.40;;;3.17;;
17347;SDS011;8791;50.876;4.342;2023-03-13T06:12:43;14.70;;;2.97;;
17347;SDS011;8791;50.876;4.342;2023-03-13T06:15:10;9.87;;;2.50;;
17347;SDS011;8791;50.876;4.342;2023-03-13T06:17:37;6.17;;;2.63;;
17347;SDS011;8791;50.876;4.342;2023-03-13T06:20:04;13.87;;;3.53;;
17347;SDS011;8791;50.876;4.342;2023-03-13T06:22:32;11.17;;;3.33;;
17347;SDS011;8791;50.876;4.342;2023-03-13T06:25:00;12.30;;;3.00;;
17347;SDS011;8791;50.876;4.342;2023-03-13T06:27:26;8.63;;;2.80;;
17347;SDS011;8791;50.876;4.342;2023-03-13T06:29:53;5.70;;;2.93;;
17347;SDS011;8791;50.876;4.342;2023-03-13T06:32:20;10.57;;;3.03;;
17347;SDS011;8791;50.876;4.342;2023-03-13T06:34:47;9.27;;;3.10;;
17347;SDS011;8791;50.876;4.342;2023-03-13T06:37:14;12.37;;;3.53;;
17347;SDS011;8791;50.876;4.342;2023-03-13T06:39:40;10.83;;;3.07;;
17347;SDS011;8791;50.876;4.342;2023-03-13T06:42:08;7.20;;;2.80;;
17347;SDS011;8791;50.876;4.342;2023-03-13T06:44:35;9.23;;;3.03;;
17347;SDS011;8791;50.876;4.342;2023-03-13T06:47:02;11.27;;;3.60;;
17347;SDS011;8791;50.876;4.342;2023-03-13T06:49:29;21.57;;;3.40;;
17347;SDS011;8791;50.876;4.342;2023-03-13T06:51:56;10.23;;;2.60;;
17347;SDS011;8791;50.876;4.342;2023-03-13T06:54:23;27.17;;;7.50;;
17347;SDS011;8791;50.876;4.342;2023-03-13T06:56:50;13.57;;;4.20;;
17347;SDS011;8791;50.876;4.342;2023-03-13T06:59:18;9.67;;;3.03;;
17347;SDS011;8791;50.876;4.342;2023-03-13T07:01:45;9.83;;;3.10;;
17347;SDS011;8791;50.876;4.342;2023-03-13T07:04:12;9.37;;;3.00;;
17347;SDS011;8791;50.876;4.342;2023-03-13T07:06:40;13.30;;;3.00;;
17347;SDS011;8791;50.876;4.342;2023-03-13T07:09:07;15.70;;;3.33;;
17347;SDS011;8791;50.876;4.342;2023-03-13T07:11:34;8.87;;;2.70;;
17347;SDS011;8791;50.876;4.342;2023-03-13T07:14:01;10.50;;;3.27;;
17347;SDS011;8791;50.876;4.342;2023-03-13T07:16:29;11.05;;;3.45;;
17347;SDS011;8791;50.876;4.342;2023-03-13T07:18:56;7.20;;;2.63;;
17347;SDS011;8791;50.876;4.342;2023-03-13T07:21:23;11.57;;;3.07;;
17347;SDS011;8791;50.876;4.342;2023-03-13T07:23:50;13.10;;;3.17;;
17347;SDS011;8791;50.876;4.342;2023-03-13T07:26:16;6.37;;;2.47;;
17347;SDS011;8791;50.876;4.342;2023-03-13T07:28:44;7.20;;;2.90;;
17347;SDS011;8791;50.876;4.342;2023-03-13T07:31:12;6.33;;;3.13;;
17347;SDS011;8791;50.876;4.342;2023-03-13T07:33:41;8.73;;;3.10;;
17347;SDS011;8791;50.876;4.342;2023-03-13T07:36:10;9.83;;;3.70;;
17347;SDS011;8791;50.876;4.342;2023-03-13T07:38:38;10.67;;;3.37;;
17347;SDS011;8791;50.876;4.342;2023-03-13T07:41:09;8.57;;;2.87;;
17347;SDS011;8791;50.876;4.342;2023-03-13T07:43:37;9.20;;;2.63;;
17347;SDS011;8791;50.876;4.342;2023-03-13T07:46:04;7.93;;;3.00;;
17347;SDS011;8791;50.876;4.342;2023-03-13T07:48:33;11.30;;;2.90;;
17347;SDS011;8791;50.876;4.342;2023-03-13T07:51:03;5.70;;;2.60;;
17347;SDS011;8791;50.876;4.342;2023-03-13T07:53:32;7.20;;;2.90;;
17347;SDS011;8791;50.876;4.342;2023-03-13T07:55:59;12.60;;;3.03;;
17347;SDS011;8791;50.876;4.342;2023-03-13T07:58:28;11.63;;;3.10;;
17347;SDS011;8791;50.876;4.342;2023-03-13T08:00:56;7.40;;;3.27;;
17347;SDS011;8791;50.876;4.342;2023-03-13T08:03:23;11.60;;;3.33;;
17347;SDS011;8791;50.876;4.342;2023-03-13T08:05:57;10.30;;;3.30;;
17347;SDS011;8791;50.876;4.342;2023-03-13T08:08:26;7.83;;;3.07;;
17347;SDS011;8791;50.876;4.342;2023-03-13T08:10:57;13.87;;;3.10;;
17347;SDS011;8791;50.876;4.342;2023-03-13T08:13:25;5.67;;;2.73;;
17347;SDS011;8791;50.876;4.342;2023-03-13T08:15:52;5.90;;;2.90;;
17347;SDS011;8791;50.876;4.342;2023-03-13T08:18:26;13.70;;;3.67;;
17347;SDS011;8791;50.876;4.342;2023-03-13T08:20:53;7.33;;;2.87;;
17347;SDS011;8791;50.876;4.342;2023-03-13T08:23:20;6.17;;;2.40;;
17347;SDS011;8791;50.876;4.342;2023-03-13T08:25:48;5.67;;;2.40;;
17347;SDS011;8791;50.876;4.342;2023-03-13T08:28:14;5.57;;;2.60;;
17347;SDS011;8791;50.876;4.342;2023-03-13T08:30:41;9.03;;;3.13;;
17347;SDS011;8791;50.876;4.342;2023-03-13T08:33:08;32.70;;;7.97;;
17347;SDS011;8791;50.876;4.342;2023-03-13T08:35:35;9.60;;;3.70;;
17347;SDS011;8791;50.876;4.342;2023-03-13T08:38:02;11.20;;;2.87;;
17347;SDS011;8791;50.876;4.342;2023-03-13T08:40:28;8.33;;;3.03;;
17347;SDS011;8791;50.876;4.342;2023-03-13T08:42:57;4.57;;;2.77;;
17347;SDS011;8791;50.876;4.342;2023-03-13T08:45:24;9.93;;;3.10;;
17347;SDS011;8791;50.876;4.342;2023-03-13T08:47:51;20.13;;;3.23;;
17347;SDS011;8791;50.876;4.342;2023-03-13T08:50:18;3.27;;;2.47;;
17347;SDS011;8791;50.876;4.342;2023-03-13T08:52:45;3.77;;;2.33;;
17347;SDS011;8791;50.876;4.342;2023-03-13T08:55:11;8.90;;;2.50;;
17347;SDS011;8791;50.876;4.342;2023-03-13T08:57:38;4.00;;;2.57;;
17347;SDS011;8791;50.876;4.342;2023-03-13T09:00:07;9.90;;;2.60;;
17347;SDS011;8791;50.876;4.342;2023-03-13T09:02:37;9.23;;;2.73;;
17347;SDS011;8791;50.876;4.342;2023-03-13T09:05:04;5.73;;;2.23;;
17347;SDS011;8791;50.876;4.342;2023-03-13T09:07:32;6.07;;;2.60;;
17347;SDS011;8791;50.876;4.342;2023-03-13T09:09:58;5.43;;;2.30;;
17347;SDS011;8791;50.876;4.342;2023-03-13T09:12:25;4.33;;;2.10;;
17347;SDS011;8791;50.876;4.342;2023-03-13T09:14:52;5.30;;;2.70;;
17347;SDS011;8791;50.876;4.342;2023-03-13T09:17:20;7.03;;;2.30;;
17347;SDS011;8791;50.876;4.342;2023-03-13T09:19:47;5.60;;;2.17;;
17347;SDS011;8791;50.876;4.342;2023-03-13T09:22:14;7.03;;;3.10;;
17347;SDS011;8791;50.876;4.342;2023-03-13T09:24:40;9.20;;;2.57;;
17347;SDS011;8791;50.876;4.342;2023-03-13T09:27:08;6.60;;;2.40;;
17347;SDS011;8791;50.876;4.342;2023-03-13T09:29:35;6.30;;;2.43;;
17347;SDS011;8791;50.876;4.342;2023-03-13T09:32:05;5.17;;;2.20;;
17347;SDS011;8791;50.876;4.342;2023-03-13T09:34:34;4.53;;;2.00;;
17347;SDS011;8791;50.876;4.342;2023-03-13T09:37:00;2.70;;;1.93;;
17347;SDS011;8791;50.876;4.342;2023-03-13T09:39:27;3.13;;;1.77;;
17347;SDS011;8791;50.876;4.342;2023-03-13T09:41:56;5.27;;;1.70;;
17347;SDS011;8791;50.876;4.342;2023-03-13T09:44:30;3.53;;;1.93;;
17347;SDS011;8791;50.876;4.342;2023-03-13T09:47:03;5.57;;;1.80;;
17347;SDS011;8791;50.876;4.342;2023-03-13T09:49:37;5.23;;;1.87;;
17347;SDS011;8791;50.876;4.342;2023-03-13T09:52:10;7.43;;;2.57;;
17347;SDS011;8791;50.876;4.342;2023-03-13T09:54:41;2.07;;;1.53;;
17347;SDS011;8791;50.876;4.342;2023-03-13T09:57:14;6.20;;;1.60;;
17347;SDS011;8791;50.876;4.342;2023-03-13T09:59:47;4.47;;;1.70;;
17347;SDS011;8791;50.876;4.342;2023-03-13T10:02:24;2.43;;;1.70;;
17347;SDS011;8791;50.876;4.342;2023-03-13T10:05:01;10.23;;;1.53;;
17347;SDS011;8791;50.876;4.342;2023-03-13T10:07:31;5.57;;;1.60;;
17347;SDS011;8791;50.876;4.342;2023-03-13T10:09:59;5.78;;;1.88;;
17347;SDS011;8791;50.876;4.342;2023-03-13T10:12:27;6.53;;;2.38;;
17347;SDS011;8791;50.876;4.342;2023-03-13T10:14:59;5.05;;;1.77;;
17347;SDS011;8791;50.876;4.342;2023-03-13T10:17:42;2.63;;;1.43;;
17347;SDS011;8791;50.876;4.342;2023-03-13T10:20:16;1.80;;;1.50;;
17347;SDS011;8791;50.876;4.342;2023-03-13T10:22:47;6.88;;;1.90;;
17347;SDS011;8791;50.876;4.342;2023-03-13T10:25:20;6.50;;;2.17;;
17347;SDS011;8791;50.876;4.342;2023-03-13T10:27:53;7.22;;;1.98;;
17347;SDS011;8791;50.876;4.342;2023-03-13T10:30:21;2.90;;;1.55;;
17347;SDS011;8791;50.876;4.342;2023-03-13T10:32:52;5.03;;;1.58;;
17347;SDS011;8791;50.876;4.342;2023-03-13T10:35:21;1.77;;;1.17;;
17347;SDS011;8791;50.876;4.342;2023-03-13T10:37:49;4.40;;;1.80;;
17347;SDS011;8791;50.876;4.342;2023-03-13T10:40:25;5.93;;;1.80;;
17347;SDS011;8791;50.876;4.342;2023-03-13T10:42:59;4.90;;;1.90;;
17347;SDS011;8791;50.876;4.342;2023-03-13T10:45:30;3.88;;;1.38;;
17347;SDS011;8791;50.876;4.342;2023-03-13T10:48:00;6.47;;;1.50;;
17347;SDS011;8791;50.876;4.342;2023-03-13T10:50:37;5.20;;;1.33;;
17347;SDS011;8791;50.876;4.342;2023-03-13T10:53:19;3.80;;;1.33;;
17347;SDS011;8791;50.876;4.342;2023-03-13T10:55:51;3.10;;;2.10;;
17347;SDS011;8791;50.876;4.342;2023-03-13T10:58:21;4.90;;;1.70;;
17347;SDS011;8791;50.876;4.342;2023-03-13T11:00:51;6.03;;;1.90;;
17347;SDS011;8791;50.876;4.342;2023-03-13T11:03:22;5.32;;;1.80;;
17347;SDS011;8791;50.876;4.342;2023-03-13T11:05:57;3.92;;;1.77;;
17347;SDS011;8791;50.876;4.342;2023-03-13T11:08:25;4.10;;;1.73;;
17347;SDS011;8791;50.876;4.342;2023-03-13T11:10:57;8.05;;;1.75;;
17347;SDS011;8791;50.876;4.342;2023-03-13T11:13:26;4.28;;;1.45;;
17347;SDS011;8791;50.876;4.342;2023-03-13T11:16:00;3.75;;;1.38;;
17347;SDS011;8791;50.876;4.342;2023-03-13T11:18:35;3.15;;;1.50;;
17347;SDS011;8791;50.876;4.342;2023-03-13T11:21:08;7.18;;;1.63;;
17347;SDS011;8791;50.876;4.342;2023-03-13T11:23:44;6.50;;;2.22;;
17347;SDS011;8791;50.876;4.342;2023-03-13T11:26:15;8.73;;;2.03;;
17347;SDS011;8791;50.876;4.342;2023-03-13T11:28:49;6.85;;;1.60;;
17347;SDS011;8791;50.876;4.342;2023-03-13T11:31:22;9.32;;;1.90;;
17347;SDS011;8791;50.876;4.342;2023-03-13T11:33:54;6.55;;;1.70;;
17347;SDS011;8791;50.876;4.342;2023-03-13T11:36:29;3.90;;;1.60;;
17347;SDS011;8791;50.876;4.342;2023-03-13T11:39:02;3.03;;;1.48;;
17347;SDS011;8791;50.876;4.342;2023-03-13T11:41:44;3.08;;;1.70;;
17347;SDS011;8791;50.876;4.342;2023-03-13T11:44:28;3.47;;;1.63;;
17347;SDS011;8791;50.876;4.342;2023-03-13T11:46:59;5.75;;;1.20;;
17347;SDS011;8791;50.876;4.342;2023-03-13T11:49:44;4.22;;;1.30;;
17347;SDS011;8791;50.876;4.342;2023-03-13T11:52:24;3.03;;;1.30;;
17347;SDS011;8791;50.876;4.342;2023-03-13T11:55:11;6.65;;;1.60;;
17347;SDS011;8791;50.876;4.342;2023-03-13T11:57:57;3.83;;;1.27;;
17347;SDS011;8791;50.876;4.342;2023-03-13T12:00:35;5.97;;;1.67;;
17347;SDS011;8791;50.876;4.342;2023-03-13T12:03:10;8.02;;;1.52;;
17347;SDS011;8791;50.876;4.342;2023-03-13T12:05:42;3.72;;;1.60;;
17347;SDS011;8791;50.876;4.342;2023-03-13T12:08:16;5.22;;;1.00;;
17347;SDS011;8791;50.876;4.342;2023-03-13T12:10:51;3.17;;;0.88;;
17347;SDS011;8791;50.876;4.342;2023-03-13T12:13:30;8.30;;;1.33;;
17347;SDS011;8791;50.876;4.342;2023-03-13T12:16:01;3.72;;;1.17;;
17347;SDS011;8791;50.876;4.342;2023-03-13T12:18:35;4.28;;;1.20;;
17347;SDS011;8791;50.876;4.342;2023-03-13T12:21:04;4.95;;;1.60;;
17347;SDS011;8791;50.876;4.342;2023-03-13T12:23:42;5.72;;;1.33;;
17347;SDS011;8791;50.876;4.342;2023-03-13T12:26:14;14.88;;;1.90;;
17347;SDS011;8791;50.876;4.342;2023-03-13T12:28:44;3.40;;;1.73;;
17347;SDS011;8791;50.876;4.342;2023-03-13T12:31:18;11.98;;;1.80;;
17347;SDS011;8791;50.876;4.342;2023-03-13T12:33:51;1.10;;;1.00;;
17347;SDS011;8791;50.876;4.342;2023-03-13T12:36:21;4.13;;;1.83;;
17347;SDS011;8791;50.876;4.342;2023-03-13T12:38:55;3.92;;;1.45;;
17347;SDS011;8791;50.876;4.342;2023-03-13T12:41:31;2.45;;;1.20;;
17347;SDS011;8791;50.876;4.342;2023-03-13T12:44:06;2.45;;;1.40;;
17347;SDS011;8791;50.876;4.342;2023-03-13T12:46:38;5.93;;;1.27;;
17347;SDS011;8791;50.876;4.342;2023-03-13T12:49:22;2.03;;;1.02;;
17347;SDS011;8791;50.876;4.342;2023-03-13T12:52:14;9.38;;;1.20;;
17347;SDS011;8791;50.876;4.342;2023-03-13T12:54:58;6.03;;;1.60;;
17347;SDS011;8791;50.876;4.342;2023-03-13T13:00:49;2.50;;;1.13;;
17347;SDS011;8791;50.876;4.342;2023-03-13T13:03:23;3.75;;;0.90;;
17347;SDS011;8791;50.876;4.342;2023-03-13T13:05:58;10.60;;;1.63;;
17347;SDS011;8791;50.876;4.342;2023-03-13T13:08:32;5.38;;;1.13;;
17347;SDS011;8791;50.876;4.342;2023-03-13T13:17:46;5.75;;;1.20;;
17347;SDS011;8791;50.876;4.342;2023-03-13T13:20:30;4.43;;;1.30;;
17347;SDS011;8791;50.876;4.342;2023-03-13T13:23:28;5.20;;;1.83;;
17347;SDS011;8791;50.876;4.342;2023-03-13T13:32:18;5.28;;;1.20;;
17347;SDS011;8791;50.876;4.342;2023-03-13T13:35:23;4.97;;;1.42;;
17347;SDS011;8791;50.876;4.342;2023-03-13T13:41:01;6.75;;;1.63;;
17347;SDS011;8791;50.876;4.342;2023-03-13T13:43:31;4.25;;;1.35;;
17347;SDS011;8791;50.876;4.342;2023-03-13T13:46:00;8.10;;;1.40;;
17347;SDS011;8791;50.876;4.342;2023-03-13T13:48:34;6.15;;;1.42;;
17347;SDS011;8791;50.876;4.342;2023-03-13T13:54:01;4.00;;;1.45;;
17347;SDS011;8791;50.876;4.342;2023-03-13T13:56:38;6.47;;;1.52;;
17347;SDS011;8791;50.876;4.342;2023-03-13T14:02:11;4.47;;;1.50;;
17347;SDS011;8791;50.876;4.342;2023-03-13T14:04:43;10.10;;;1.80;;
17347;SDS011;8791;50.876;4.342;2023-03-13T14:07:16;5.53;;;2.00;;
17347;SDS011;8791;50.876;4.342;2023-03-13T14:09:49;2.58;;;1.73;;
17347;SDS011;8791;50.876;4.342;2023-03-13T14:12:27;6.10;;;1.60;;
17347;SDS011;8791;50.876;4.342;2023-03-13T14:15:11;6.03;;;1.55;;
17347;SDS011;8791;50.876;4.342;2023-03-13T14:17:40;4.20;;;1.30;;
17347;SDS011;8791;50.876;4.342;2023-03-13T14:20:17;6.75;;;1.50;;
17347;SDS011;8791;50.876;4.342;2023-03-13T14:22:50;7.70;;;1.25;;
17347;SDS011;8791;50.876;4.342;2023-03-13T14:25:18;6.47;;;1.23;;
17347;SDS011;8791;50.876;4.342;2023-03-13T14:27:46;3.22;;;1.55;;
17347;SDS011;8791;50.876;4.342;2023-03-13T14:30:14;7.57;;;1.60;;
17347;SDS011;8791;50.876;4.342;2023-03-13T14:32:43;5.82;;;1.48;;
17347;SDS011;8791;50.876;4.342;2023-03-13T14:35:10;7.60;;;1.88;;
17347;SDS011;8791;50.876;4.342;2023-03-13T14:37:41;7.00;;;1.35;;
17347;SDS011;8791;50.876;4.342;2023-03-13T14:40:17;11.15;;;1.42;;
17347;SDS011;8791;50.876;4.342;2023-03-13T14:42:46;5.55;;;1.50;;
17347;SDS011;8791;50.876;4.342;2023-03-13T14:45:18;4.60;;;1.45;;
17347;SDS011;8791;50.876;4.342;2023-03-13T14:47:48;5.00;;;1.52;;
17347;SDS011;8791;50.876;4.342;2023-03-13T14:50:15;7.68;;;1.52;;
17347;SDS011;8791;50.876;4.342;2023-03-13T14:52:45;6.65;;;1.67;;
17347;SDS011;8791;50.876;4.342;2023-03-13T14:58:01;7.25;;;1.90;;
17347;SDS011;8791;50.876;4.342;2023-03-13T15:00:36;4.18;;;1.73;;
17347;SDS011;8791;50.876;4.342;2023-03-13T15:03:11;6.82;;;2.03;;
17347;SDS011;8791;50.876;4.342;2023-03-13T15:05:46;7.50;;;1.55;;
17347;SDS011;8791;50.876;4.342;2023-03-13T15:08:16;10.00;;;1.83;;
17347;SDS011;8791;50.876;4.342;2023-03-13T15:10:45;6.60;;;1.77;;
17347;SDS011;8791;50.876;4.342;2023-03-13T15:13:14;4.63;;;1.65;;
17347;SDS011;8791;50.876;4.342;2023-03-13T15:15:42;12.35;;;1.95;;
17347;SDS011;8791;50.876;4.342;2023-03-13T15:18:12;9.75;;;1.65;;
17347;SDS011;8791;50.876;4.342;2023-03-13T15:20:47;8.65;;;1.77;;
17347;SDS011;8791;50.876;4.342;2023-03-13T15:23:16;9.32;;;1.58;;
17347;SDS011;8791;50.876;4.342;2023-03-13T15:25:44;10.48;;;2.15;;
17347;SDS011;8791;50.876;4.342;2023-03-13T15:28:13;8.23;;;2.35;;
17347;SDS011;8791;50.876;4.342;2023-03-13T15:30:41;5.88;;;1.80;;
17347;SDS011;8791;50.876;4.342;2023-03-13T15:33:12;4.60;;;1.70;;
17347;SDS011;8791;50.876;4.342;2023-03-13T15:35:40;3.22;;;1.40;;
17347;SDS011;8791;50.876;4.342;2023-03-13T15:38:10;10.75;;;2.63;;
17347;SDS011;8791;50.876;4.342;2023-03-13T15:40:40;8.63;;;1.83;;